createdAt,value
2023-03-04T00:00:46.311Z,98.99
2023-03-04T00:03:15.517Z,98.21
2023-03-04T00:05:43.901Z,99.18
2023-03-04T00:08:11.788Z,97.84
2023-03-04T00:10:39.927Z,98.54
2023-03-04T00:13:07.857Z,98.64
2023-03-04T00:15:37.168Z,98.25
2023-03-04T00:18:05.435Z,98.42
2023-03-04T00:20:33.504Z,97.69
2023-03-04T00:23:01.481Z,98.03
2023-03-04T00:25:29.447Z,98.60
2023-03-04T00:27:58.334Z,98.54
2023-03-04T00:30:27.576Z,98.45
2023-03-04T00:32:57.031Z,98.13
2023-03-04T00:35:25.341Z,97.52
2023-03-04T00:37:55.046Z,97.20
2023-03-04T00:40:23.070Z,97.30
2023-03-04T00:42:51.062Z,98.86
2023-03-04T00:45:19.267Z,98.44
2023-03-04T00:47:47.309Z,97.76
2023-03-04T00:50:17.333Z,98.82
2023-03-04T00:52:45.251Z,98.84
2023-03-04T00:55:13.314Z,98.25
2023-03-04T00:57:41.273Z,98.34
2023-03-04T01:00:10.770Z,98.06
2023-03-04T01:02:38.936Z,98.64
2023-03-04T01:05:08.310Z,98.27
2023-03-04T01:07:38.116Z,97.78
2023-03-04T01:10:07.768Z,97.83
2023-03-04T01:12:35.806Z,97.51
2023-03-04T01:15:03.930Z,98.61
2023-03-04T01:17:32.107Z,97.44
2023-03-04T01:20:00.270Z,97.75
2023-03-04T01:22:28.730Z,98.62
2023-03-04T01:24:58.135Z,98.28
2023-03-04T01:27:27.366Z,98.08
2023-03-04T01:29:55.334Z,98.06
2023-03-04T01:32:23.959Z,98.61
2023-03-04T01:34:51.930Z,98.51
2023-03-04T01:37:19.933Z,98.58
2023-03-04T01:39:48.137Z,98.50
2023-03-04T01:42:20.936Z,98.42
2023-03-04T01:44:50.593Z,98.47
2023-03-04T01:47:19.452Z,97.83
2023-03-04T01:49:52.151Z,97.96
2023-03-04T01:52:20.202Z,98.79
2023-03-04T01:54:48.963Z,98.49
2023-03-04T01:57:20.224Z,98.92
2023-03-04T01:59:49.200Z,98.77
2023-03-04T02:02:18.416Z,98.86
2023-03-04T02:04:46.596Z,98.39
2023-03-04T02:07:14.724Z,98.86
2023-03-04T02:09:42.797Z,98.65
2023-03-04T02:12:14.339Z,98.72
2023-03-04T02:14:44.360Z,98.93
2023-03-04T02:17:13.834Z,97.96
2023-03-04T02:19:48.238Z,98.40
2023-03-04T02:22:16.411Z,98.30
2023-03-04T02:24:48.480Z,98.84
2023-03-04T02:27:19.898Z,99.35
2023-03-04T02:29:49.450Z,98.75
2023-03-04T02:32:18.356Z,98.26
2023-03-04T02:34:49.453Z,98.27
2023-03-04T02:37:19.669Z,98.86
2023-03-04T02:39:51.552Z,99.43
2023-03-04T02:42:21.055Z,98.78
2023-03-04T02:44:50.608Z,98.56
2023-03-04T02:47:20.960Z,99.27
2023-03-04T02:49:50.534Z,98.98
2023-03-04T02:52:21.556Z,99.02
2023-03-04T02:54:49.781Z,98.72
2023-03-04T02:57:20.446Z,99.38
2023-03-04T02:59:53.397Z,99.00
2023-03-04T03:02:24.703Z,98.71
2023-03-04T03:04:52.797Z,99.25
2023-03-04T03:07:22.566Z,99.31
2023-03-04T03:09:50.759Z,99.74
2023-03-04T03:12:21.376Z,99.29
2023-03-04T03:14:50.362Z,99.28
2023-03-04T03:17:20.968Z,99.31
2023-03-04T03:19:48.983Z,99.02
2023-03-04T03:22:17.852Z,99.44
2023-03-04T03:24:46.040Z,100.00
2023-03-04T03:27:14.081Z,99.56
2023-03-04T03:29:43.510Z,99.37
2023-03-04T03:32:11.504Z,99.52
2023-03-04T03:34:40.226Z,100.00
2023-03-04T03:37:09.885Z,100.00
2023-03-04T03:39:38.201Z,100.00
2023-03-04T03:42:06.216Z,99.70
2023-03-04T03:44:34.329Z,99.45
2023-03-04T03:47:03.927Z,99.93
2023-03-04T03:49:31.917Z,99.52
2023-03-04T03:52:00.202Z,100.00
2023-03-04T03:54:28.297Z,99.55
2023-03-04T03:56:56.325Z,100.00
2023-03-04T03:59:24.850Z,100.00
2023-03-04T04:01:52.991Z,99.16
2023-03-04T04:04:22.350Z,99.53
2023-03-04T04:06:50.389Z,99.44
2023-03-04T04:09:18.468Z,99.83
2023-03-04T04:11:46.848Z,99.73
2023-03-04T04:14:15.014Z,99.84
2023-03-04T04:16:43.456Z,99.41
2023-03-04T04:19:17.756Z,99.82
2023-03-04T04:21:47.641Z,99.68
2023-03-04T04:24:15.729Z,99.00
2023-03-04T04:26:44.308Z,100.00
2023-03-04T04:29:15.256Z,100.00
2023-03-04T04:31:43.239Z,99.91
2023-03-04T04:34:11.272Z,99.56
2023-03-04T04:36:39.360Z,99.14
2023-03-04T04:39:08.758Z,99.29
2023-03-04T04:41:39.227Z,99.50
2023-03-04T04:44:07.237Z,99.90
2023-03-04T04:46:35.317Z,99.38
2023-03-04T04:49:03.356Z,99.83
2023-03-04T04:51:31.442Z,99.53
2023-03-04T04:54:00.095Z,99.58
2023-03-04T04:56:30.222Z,99.29
2023-03-04T04:59:00.262Z,99.67
2023-03-04T05:01:29.308Z,99.27
2023-03-04T05:03:57.482Z,99.39
2023-03-04T05:06:25.799Z,99.85
2023-03-04T05:08:53.983Z,100.00
2023-03-04T05:11:22.167Z,100.00
2023-03-04T05:13:51.950Z,100.00
2023-03-04T05:16:19.954Z,100.00
2023-03-04T05:18:48.275Z,100.00
2023-03-04T05:21:16.419Z,99.61
2023-03-04T05:23:45.036Z,99.62
2023-03-04T05:26:15.597Z,100.00
2023-03-04T05:28:43.794Z,100.00
2023-03-04T05:31:13.510Z,100.00
2023-03-04T05:33:41.775Z,100.00
2023-03-04T05:36:10.783Z,100.00
2023-03-04T05:38:39.111Z,99.36
2023-03-04T05:41:08.737Z,99.90
2023-03-04T05:43:38.461Z,100.00
2023-03-04T05:46:06.952Z,99.15
2023-03-04T05:48:36.584Z,100.00
2023-03-04T05:51:04.838Z,100.00
2023-03-04T05:53:32.981Z,100.00
2023-03-04T05:56:01.053Z,100.00
2023-03-04T05:58:29.418Z,100.00
2023-03-04T06:01:01.417Z,100.00
2023-03-04T06:03:29.806Z,99.76
2023-03-04T06:05:59.426Z,100.00
2023-03-04T06:08:28.172Z,100.00
2023-03-04T06:10:59.015Z,100.00
2023-03-04T06:13:27.293Z,100.00
2023-03-04T06:15:56.379Z,100.00
2023-03-04T06:18:25.818Z,100.00
2023-03-04T06:20:59.674Z,100.00
2023-03-04T06:23:28.519Z,100.00
2023-03-04T06:25:57.699Z,100.00
2023-03-04T06:28:26.838Z,100.00
2023-03-04T06:30:55.482Z,100.00
2023-03-04T06:33:24.451Z,100.00
2023-03-04T06:35:55.802Z,100.00
2023-03-04T06:38:25.341Z,100.00
2023-03-04T06:40:56.073Z,100.00
2023-03-04T06:43:25.311Z,100.00
2023-03-04T06:45:53.605Z,100.00
2023-03-04T06:48:21.627Z,100.00
2023-03-04T06:50:49.819Z,100.00
2023-03-04T06:53:18.501Z,100.00
2023-03-04T06:55:48.010Z,100.00
2023-03-04T06:58:17.429Z,100.00
2023-03-04T07:00:45.823Z,100.00
2023-03-04T07:03:13.933Z,100.00
2023-03-04T07:05:42.028Z,100.00
2023-03-04T07:08:09.967Z,100.00
2023-03-04T07:10:37.926Z,100.00
2023-03-04T07:13:07.161Z,99.86
2023-03-04T07:15:36.177Z,100.00
2023-03-04T07:18:04.052Z,100.00
2023-03-04T07:20:31.931Z,99.76
2023-03-04T07:22:59.790Z,99.50
2023-03-04T07:25:27.686Z,99.57
2023-03-04T07:27:55.599Z,99.55
2023-03-04T07:30:24.844Z,99.89
2023-03-04T07:32:52.737Z,99.25
2023-03-04T07:35:20.686Z,99.17
2023-03-04T07:37:48.605Z,99.24
2023-03-04T07:40:16.997Z,98.15
2023-03-04T07:42:44.950Z,98.14
2023-03-04T07:45:16.714Z,97.76
2023-03-04T07:47:46.417Z,98.17
2023-03-04T07:50:17.582Z,98.44
2023-03-04T07:52:47.626Z,99.01
2023-03-04T07:55:17.132Z,99.19
2023-03-04T07:57:46.986Z,99.62
2023-03-04T08:00:17.200Z,98.97
2023-03-04T08:02:46.800Z,98.23
2023-03-04T08:05:14.804Z,97.81
2023-03-04T08:07:42.742Z,97.78
2023-03-04T08:10:12.197Z,97.47
2023-03-04T08:12:40.240Z,97.23
2023-03-04T08:15:10.028Z,96.29
2023-03-04T08:17:38.170Z,95.36
2023-03-04T08:20:09.114Z,94.66
2023-03-04T08:22:37.265Z,94.41
2023-03-04T08:25:05.973Z,94.30
2023-03-04T08:27:33.972Z,95.53
2023-03-04T08:30:02.171Z,94.81
2023-03-04T08:32:30.301Z,93.80
2023-03-04T08:34:58.483Z,92.91
2023-03-04T08:37:27.998Z,92.88
2023-03-04T08:39:56.044Z,92.95
2023-03-04T08:42:24.631Z,92.82
2023-03-04T08:44:52.766Z,92.89
2023-03-04T08:47:20.786Z,92.59
2023-03-04T08:49:48.747Z,91.83
2023-03-04T08:52:16.799Z,92.22
2023-03-04T08:54:46.209Z,92.67
2023-03-04T08:57:14.205Z,92.05
2023-03-04T08:59:42.127Z,92.63
2023-03-04T09:02:11.176Z,92.45
2023-03-04T09:04:39.424Z,92.40
2023-03-04T09:07:07.631Z,91.51
2023-03-04T09:09:35.707Z,90.91
2023-03-04T09:12:05.292Z,90.69
2023-03-04T09:14:35.740Z,90.66
2023-03-04T09:17:04.100Z,90.08
2023-03-04T09:19:32.146Z,90.29
2023-03-04T09:22:00.289Z,89.79
2023-03-04T09:24:28.231Z,89.24
2023-03-04T09:26:56.554Z,89.66
2023-03-04T09:29:25.918Z,89.56
2023-03-04T09:31:54.025Z,90.37
2023-03-04T09:34:21.976Z,89.97
2023-03-04T09:36:49.862Z,89.77
2023-03-04T09:39:18.066Z,89.91
2023-03-04T09:41:48.969Z,89.77
2023-03-04T09:44:25.033Z,89.56
2023-03-04T09:46:58.294Z,88.57
2023-03-04T09:49:27.456Z,88.19
2023-03-04T09:52:06.013Z,87.59
2023-03-04T09:54:51.684Z,86.47
2023-03-04T09:57:28.094Z,83.12
2023-03-04T10:00:08.460Z,81.13
2023-03-04T10:02:59.752Z,79.62
2023-03-04T10:05:30.865Z,79.16
2023-03-04T10:08:02.316Z,74.61
2023-03-04T10:10:33.823Z,74.40
2023-03-04T10:13:03.799Z,74.47
2023-03-04T10:15:37.469Z,75.87
2023-03-04T10:18:16.185Z,76.34
2023-03-04T10:20:54.661Z,78.33
2023-03-04T10:23:25.636Z,80.25
2023-03-04T10:25:54.748Z,81.17
2023-03-04T10:28:26.968Z,82.23
2023-03-04T10:31:00.484Z,81.88
2023-03-04T10:33:32.004Z,79.96
2023-03-04T10:36:03.530Z,80.70
2023-03-04T10:38:33.805Z,80.20
2023-03-04T10:41:03.088Z,80.60
2023-03-04T10:43:31.223Z,79.54
2023-03-04T10:46:01.337Z,79.88
2023-03-04T10:48:32.838Z,79.14
2023-03-04T10:51:14.834Z,79.17
2023-03-04T10:53:46.293Z,78.74
2023-03-04T10:56:35.439Z,78.07
2023-03-04T10:59:31.795Z,79.69
2023-03-04T11:02:00.822Z,80.21
2023-03-04T11:04:35.440Z,79.06
2023-03-04T11:07:03.468Z,78.46
2023-03-04T11:09:32.697Z,79.61
2023-03-04T11:12:02.103Z,78.92
2023-03-04T11:14:36.506Z,79.41
2023-03-04T11:17:17.676Z,79.14
2023-03-04T11:19:51.439Z,77.08
2023-03-04T11:22:22.902Z,78.83
2023-03-04T11:24:58.750Z,78.79
2023-03-04T11:27:36.094Z,79.87
2023-03-04T11:30:23.759Z,78.25
2023-03-04T11:32:55.746Z,80.04
2023-03-04T11:35:29.790Z,83.31
2023-03-04T11:38:06.052Z,85.09
2023-03-04T11:40:40.261Z,85.87
2023-03-04T11:43:15.305Z,85.27
2023-03-04T11:46:13.267Z,82.16
2023-03-04T11:48:51.223Z,81.61
2023-03-04T11:51:29.567Z,80.93
2023-03-04T11:54:11.868Z,80.35
2023-03-04T11:56:45.177Z,79.82
2023-03-04T11:59:29.981Z,79.88
2023-03-04T12:02:12.545Z,79.46
2023-03-04T12:05:15.126Z,78.78
2023-03-04T12:07:55.989Z,79.02
2023-03-04T12:10:30.277Z,78.94
2023-03-04T12:13:25.785Z,78.71
2023-03-04T12:16:02.370Z,78.50
2023-03-04T12:18:47.976Z,78.31
2023-03-04T12:21:32.581Z,78.24
2023-03-04T12:24:35.503Z,78.20
2023-03-04T12:27:13.799Z,78.77
2023-03-04T12:29:48.739Z,78.59
2023-03-04T12:32:23.225Z,77.83
2023-03-04T12:35:09.349Z,78.64
2023-03-04T12:37:53.939Z,78.35
2023-03-04T12:40:32.167Z,78.58
2023-03-04T12:43:22.636Z,79.88
2023-03-04T12:46:00.374Z,79.32
2023-03-04T12:48:33.127Z,79.38
2023-03-04T12:51:13.230Z,79.87
2023-03-04T12:53:51.933Z,79.99
2023-03-04T12:56:27.563Z,80.61
2023-03-04T12:58:57.662Z,80.25
2023-03-04T13:01:30.952Z,79.80
2023-03-04T13:04:09.584Z,78.98
2023-03-04T13:06:48.931Z,78.72
2023-03-04T13:09:25.569Z,79.03
2023-03-04T13:12:03.742Z,78.38
2023-03-04T13:14:33.695Z,79.32
2023-03-04T13:17:03.909Z,78.27
2023-03-04T13:19:53.844Z,77.84
2023-03-04T13:22:29.840Z,79.10
2023-03-04T13:24:59.358Z,79.39
2023-03-04T13:27:50.062Z,78.80
2023-03-04T13:30:56.063Z,78.33
2023-03-04T13:33:52.573Z,78.23
2023-03-04T13:36:49.609Z,77.62
2023-03-04T13:39:28.379Z,77.61
2023-03-04T13:41:57.620Z,77.62
2023-03-04T13:45:05.974Z,78.57
2023-03-04T13:47:49.445Z,77.94
2023-03-04T13:50:31.750Z,78.34
2023-03-04T13:53:21.098Z,78.26
2023-03-04T13:56:06.449Z,79.16
2023-03-04T13:58:35.759Z,78.93
2023-03-04T14:01:04.351Z,79.14
2023-03-04T14:03:36.335Z,78.71
2023-03-04T14:06:17.863Z,78.59
2023-03-04T14:08:46.475Z,78.74
2023-03-04T14:11:16.579Z,78.97
2023-03-04T14:13:45.325Z,77.63
2023-03-04T14:16:13.317Z,78.45
2023-03-04T14:18:43.035Z,78.11
2023-03-04T14:21:15.781Z,77.39
2023-03-04T14:23:43.870Z,77.59
2023-03-04T14:26:13.996Z,77.19
2023-03-04T14:28:48.490Z,78.10
2023-03-04T14:31:19.234Z,77.94
2023-03-04T14:33:51.632Z,78.72
2023-03-04T14:36:23.387Z,78.60
2023-03-04T14:38:54.672Z,80.44
2023-03-04T14:41:27.101Z,81.63
2023-03-04T14:44:01.785Z,82.52
2023-03-04T14:46:34.072Z,83.67
2023-03-04T14:49:04.400Z,84.52
2023-03-04T14:51:39.022Z,84.28
2023-03-04T14:54:07.237Z,83.55
2023-03-04T14:56:36.932Z,84.56
2023-03-04T14:59:04.794Z,85.11
2023-03-04T15:01:36.415Z,85.71
2023-03-04T15:04:08.828Z,86.92
2023-03-04T15:06:39.841Z,86.04
2023-03-04T15:09:10.025Z,86.52
2023-03-04T15:11:47.576Z,85.15
2023-03-04T15:14:43.457Z,85.69
2023-03-04T15:17:25.987Z,85.44
2023-03-04T15:20:03.707Z,86.23
2023-03-04T15:22:31.789Z,85.86
2023-03-04T15:24:59.843Z,85.65
2023-03-04T15:27:29.722Z,85.71
2023-03-04T15:30:02.194Z,85.43
2023-03-04T15:32:30.801Z,85.16
2023-03-04T15:34:59.204Z,86.06
2023-03-04T15:37:30.417Z,86.99
2023-03-04T15:39:59.406Z,87.35
2023-03-04T15:42:28.893Z,87.34
2023-03-04T15:44:56.637Z,88.28
2023-03-04T15:47:25.626Z,88.32
2023-03-04T15:49:53.632Z,89.49
2023-03-04T15:52:23.226Z,89.20
2023-03-04T15:54:53.402Z,90.52
2023-03-04T15:57:26.932Z,90.61
2023-03-04T15:59:55.360Z,91.83
2023-03-04T16:02:24.949Z,91.26
2023-03-04T16:04:52.781Z,91.06
2023-03-04T16:07:24.166Z,90.65
2023-03-04T16:09:56.113Z,90.17
2023-03-04T16:12:27.648Z,89.93
2023-03-04T16:14:56.592Z,89.70
2023-03-04T16:17:24.538Z,89.94
2023-03-04T16:19:52.360Z,90.14
2023-03-04T16:22:24.149Z,91.12
2023-03-04T16:24:54.740Z,92.26
2023-03-04T16:27:24.493Z,93.03
2023-03-04T16:29:52.476Z,93.59
2023-03-04T16:32:20.333Z,93.65
2023-03-04T16:34:49.175Z,93.44
2023-03-04T16:37:21.198Z,92.91
2023-03-04T16:39:49.497Z,93.04
2023-03-04T16:42:22.033Z,93.89
2023-03-04T16:44:50.225Z,95.79
2023-03-04T16:47:18.118Z,96.54
2023-03-04T16:49:45.924Z,98.30
2023-03-04T16:52:23.223Z,100.00
2023-03-04T16:54:51.110Z,100.00
2023-03-04T16:57:20.836Z,100.00
2023-03-04T16:59:48.814Z,100.00
2023-03-04T17:02:17.767Z,100.00
2023-03-04T17:04:46.785Z,100.00
2023-03-04T17:07:14.566Z,100.00
2023-03-04T17:09:42.717Z,100.00
2023-03-04T17:12:13.302Z,100.00
2023-03-04T17:14:42.595Z,100.00
2023-03-04T17:17:10.437Z,100.00
2023-03-04T17:19:38.291Z,100.00
2023-03-04T17:22:06.200Z,100.00
2023-03-04T17:24:33.993Z,100.00
2023-03-04T17:27:02.685Z,100.00
2023-03-04T17:29:31.002Z,100.00
2023-03-04T17:32:00.578Z,100.00
2023-03-04T17:34:28.573Z,100.00
2023-03-04T17:36:56.603Z,100.00
2023-03-04T17:39:25.025Z,100.00
2023-03-04T17:41:53.689Z,100.00
2023-03-04T17:44:21.612Z,100.00
2023-03-04T17:46:50.304Z,100.00
2023-03-04T17:49:19.752Z,100.00
2023-03-04T17:51:47.799Z,100.00
2023-03-04T17:54:15.845Z,100.00
2023-03-04T17:56:44.493Z,100.00
2023-03-04T17:59:15.141Z,100.00
2023-03-04T18:01:45.014Z,100.00
2023-03-04T18:04:13.942Z,100.00
2023-03-04T18:06:43.787Z,100.00
2023-03-04T18:09:11.724Z,100.00
2023-03-04T18:11:41.073Z,100.00
2023-03-04T18:14:09.394Z,100.00
2023-03-04T18:16:37.541Z,100.00
2023-03-04T18:19:05.826Z,100.00
2023-03-04T18:21:34.136Z,100.00
2023-03-04T18:24:03.516Z,100.00
2023-03-04T18:26:32.070Z,100.00
2023-03-04T18:29:00.136Z,100.00
2023-03-04T18:31:32.139Z,100.00
2023-03-04T18:34:00.800Z,100.00
2023-03-04T18:36:29.527Z,100.00
2023-03-04T18:38:59.309Z,100.00
2023-03-04T18:41:28.879Z,100.00
2023-03-04T18:43:56.819Z,100.00
2023-03-04T18:46:30.860Z,100.00
2023-03-04T18:49:03.090Z,100.00
2023-03-04T18:51:32.215Z,100.00
2023-03-04T18:54:00.112Z,100.00
2023-03-04T18:56:37.825Z,100.00
2023-03-04T18:59:10.135Z,100.00
2023-03-04T19:01:38.210Z,100.00
2023-03-04T19:04:06.943Z,100.00
2023-03-04T19:06:35.961Z,100.00
2023-03-04T19:09:05.245Z,100.00
2023-03-04T19:11:35.047Z,100.00
2023-03-04T19:14:03.112Z,100.00
2023-03-04T19:16:31.002Z,100.00
2023-03-04T19:18:58.882Z,100.00
2023-03-04T19:21:26.804Z,100.00
2023-03-04T19:23:55.120Z,100.00
2023-03-04T19:26:23.051Z,100.00
2023-03-04T19:28:52.349Z,100.00
2023-03-04T19:31:20.224Z,100.00
2023-03-04T19:33:48.648Z,100.00
2023-03-04T19:36:16.897Z,100.00
2023-03-04T19:38:44.805Z,100.00
2023-03-04T19:41:14.773Z,100.00
2023-03-04T19:43:43.143Z,100.00
2023-03-04T19:46:13.314Z,100.00
2023-03-04T19:48:41.734Z,100.00
2023-03-04T19:51:15.508Z,100.00
2023-03-04T19:53:43.452Z,100.00
2023-03-04T19:56:11.383Z,100.00
2023-03-04T19:58:39.289Z,100.00
2023-03-04T20:01:07.628Z,100.00
2023-03-04T20:03:36.801Z,100.00
2023-03-04T20:06:06.487Z,100.00
2023-03-04T20:08:35.980Z,100.00
2023-03-04T20:11:08.569Z,100.00
2023-03-04T20:13:36.516Z,100.00
2023-03-04T20:16:08.945Z,100.00
2023-03-04T20:18:39.127Z,100.00
2023-03-04T20:21:07.486Z,100.00
2023-03-04T20:23:44.297Z,99.71
2023-03-04T20:26:12.167Z,99.79
2023-03-04T20:28:50.362Z,98.77
2023-03-04T20:31:22.147Z,97.75
2023-03-04T20:33:52.524Z,98.55
2023-03-04T20:36:22.290Z,98.91
2023-03-04T20:38:55.853Z,96.90
2023-03-04T20:41:29.677Z,97.69
2023-03-04T20:43:57.586Z,96.12
2023-03-04T20:46:26.656Z,95.95
2023-03-04T20:48:56.235Z,96.03
2023-03-04T20:51:26.114Z,95.72
2023-03-04T20:53:55.350Z,94.89
2023-03-04T20:56:24.334Z,93.86
2023-03-04T20:58:53.364Z,93.44
2023-03-04T21:01:22.212Z,92.98
2023-03-04T21:03:50.848Z,91.73
2023-03-04T21:06:20.308Z,90.57
2023-03-04T21:08:48.356Z,89.66
2023-03-04T21:11:17.341Z,88.19
2023-03-04T21:13:45.366Z,88.22
2023-03-04T21:16:14.645Z,87.20
2023-03-04T21:18:43.860Z,86.78
2023-03-04T21:21:14.183Z,87.17
2023-03-04T21:23:43.528Z,85.72
2023-03-04T21:26:11.581Z,85.77
2023-03-04T21:28:39.630Z,85.53
2023-03-04T21:31:13.774Z,85.69
2023-03-04T21:33:41.756Z,83.95
2023-03-04T21:36:10.682Z,84.16
2023-03-04T21:38:39.275Z,84.28
2023-03-04T21:41:12.928Z,84.30
2023-03-04T21:43:41.315Z,84.53
2023-03-04T21:46:10.070Z,83.44
2023-03-04T21:48:38.529Z,84.09
2023-03-04T21:51:09.186Z,84.15
2023-03-04T21:53:37.519Z,84.29
2023-03-04T21:56:06.581Z,84.38
2023-03-04T21:58:41.417Z,82.15
2023-03-04T22:01:14.072Z,82.19
2023-03-04T22:03:42.461Z,82.43
2023-03-04T22:06:13.053Z,81.05
2023-03-04T22:08:42.447Z,81.01
2023-03-04T22:11:13.185Z,81.49
2023-03-04T22:13:42.935Z,82.12
2023-03-04T22:16:11.405Z,81.68
2023-03-04T22:18:41.037Z,82.81
2023-03-04T22:21:11.448Z,83.49
2023-03-04T22:23:39.822Z,81.55
2023-03-04T22:26:09.697Z,82.20
2023-03-04T22:28:38.288Z,83.18
2023-03-04T22:31:16.797Z,83.88
2023-03-04T22:33:45.205Z,83.64
2023-03-04T22:36:14.214Z,84.83
2023-03-04T22:38:44.563Z,85.51
2023-03-04T22:41:17.390Z,86.90
2023-03-04T22:43:46.122Z,88.03
2023-03-04T22:46:18.111Z,88.65
2023-03-04T22:48:46.011Z,89.22
2023-03-04T22:51:14.309Z,90.13
2023-03-04T22:53:43.623Z,90.29
2023-03-04T22:56:13.871Z,90.89
2023-03-04T22:58:42.245Z,90.74
2023-03-04T23:01:11.405Z,90.60
2023-03-04T23:03:42.259Z,91.33
2023-03-04T23:06:14.700Z,90.79
2023-03-04T23:08:44.275Z,90.84
2023-03-04T23:11:14.060Z,91.41
2023-03-04T23:13:42.861Z,91.10
2023-03-04T23:16:12.868Z,91.16
2023-03-04T23:18:44.135Z,91.12
2023-03-04T23:21:14.172Z,91.23
2023-03-04T23:23:42.893Z,91.80
2023-03-04T23:26:15.917Z,91.95
2023-03-04T23:28:44.400Z,91.97
2023-03-04T23:31:14.742Z,91.99
2023-03-04T23:33:44.600Z,92.75
2023-03-04T23:36:15.011Z,93.16
2023-03-04T23:38:44.610Z,93.34
2023-03-04T23:41:14.122Z,93.50
2023-03-04T23:43:42.078Z,93.94
2023-03-04T23:46:11.513Z,93.97
2023-03-04T23:48:40.141Z,93.47
2023-03-04T23:51:10.541Z,93.59
2023-03-04T23:53:39.271Z,93.79
2023-03-04T23:56:09.375Z,93.78
2023-03-04T23:58:37.334Z,93.74
